Connexion S'enregistrer

Connexion à votre compte

Identifiant
Mot de passe
Maintenir la connexion active sur ce site

Créer un compte

Pour valider ce formulaire, vous devez remplir tous les champs.
Nom
Identifiant
Mot de passe
Répétez le mot de passe
Adresse e-mail
Répétez l'adresse e-mail

Nous contacter

 Téléphone : +33 (0)4 79 54 41 81

Coordonnées détaillées et accès : cliquez ici

 
LFLB °C
    Ferienhaus Ostsee
[source: ADDS]
METAR
LFLB 100000Z AUTO 03009KT 9999 BKN031 OVC039 06/02 Q1023 =
TAF LFLB 091700Z 0918/1018 34010KT 9999 OVC035 TEMPO 0918/1002 VRB12G25KT 3000 SHRA SCT025TCU OVC030 BECMG 1003/1006 BKN020
TAF
TAF LFLB 091700Z 0918/1018 34010KT 9999 OVC035 TEMPO 0918/1002 VRB12G25KT 3000 SHRA SCT025TCU OVC030 BECMG 1003/1006 BKN020 =
SR / SS: 07:05 / 15:52 UTC (Lever/Coucher du soleil le 2019-12-10)
JSN Boot template designed by JoomlaShine.com